sensor_id;sensor_type;location;lat;lon;timestamp;P1;durP1;ratioP1;P2;durP2;ratioP2
67500;SDS011;54349;52.528;19.760;2024-03-23T00:53:00;5.30;;;4.70;;
67500;SDS011;54349;52.528;19.760;2024-03-23T00:55:29;5.60;;;4.90;;
67500;SDS011;54349;52.528;19.760;2024-03-23T00:57:56;6.30;;;5.10;;
67500;SDS011;54349;52.528;19.760;2024-03-23T01:00:24;7.10;;;4.80;;
67500;SDS011;54349;52.528;19.760;2024-03-23T01:02:53;6.20;;;5.50;;
67500;SDS011;54349;52.528;19.760;2024-03-23T01:07:53;7.80;;;5.30;;
67500;SDS011;54349;52.528;19.760;2024-03-23T01:10:20;6.50;;;4.80;;
67500;SDS011;54349;52.528;19.760;2024-03-23T01:12:49;6.00;;;5.20;;
67500;SDS011;54349;52.528;19.760;2024-03-23T01:15:19;6.60;;;5.50;;
67500;SDS011;54349;52.528;19.760;2024-03-23T01:17:47;6.00;;;4.70;;
67500;SDS011;54349;52.528;19.760;2024-03-23T01:20:14;6.50;;;5.30;;
67500;SDS011;54349;52.528;19.760;2024-03-23T01:22:43;6.20;;;5.30;;
67500;SDS011;54349;52.528;19.760;2024-03-23T01:25:11;5.60;;;4.90;;
67500;SDS011;54349;52.528;19.760;2024-03-23T01:27:39;6.10;;;4.60;;
67500;SDS011;54349;52.528;19.760;2024-03-23T01:30:08;6.70;;;5.30;;
67500;SDS011;54349;52.528;19.760;2024-03-23T01:32:37;5.90;;;4.20;;
67500;SDS011;54349;52.528;19.760;2024-03-23T01:35:08;4.40;;;3.90;;
67500;SDS011;54349;52.528;19.760;2024-03-23T01:37:37;5.20;;;3.90;;
67500;SDS011;54349;52.528;19.760;2024-03-23T01:40:11;4.20;;;3.80;;
67500;SDS011;54349;52.528;19.760;2024-03-23T01:42:41;4.60;;;3.70;;
67500;SDS011;54349;52.528;19.760;2024-03-23T01:45:10;5.10;;;4.60;;
67500;SDS011;54349;52.528;19.760;2024-03-23T01:47:37;5.20;;;3.90;;
67500;SDS011;54349;52.528;19.760;2024-03-23T01:50:05;3.90;;;3.50;;
67500;SDS011;54349;52.528;19.760;2024-03-23T01:52:35;3.90;;;3.60;;
67500;SDS011;54349;52.528;19.760;2024-03-23T01:55:02;3.70;;;3.30;;
67500;SDS011;54349;52.528;19.760;2024-03-23T01:57:33;4.60;;;3.60;;
67500;SDS011;54349;52.528;19.760;2024-03-23T02:00:00;4.00;;;3.50;;
67500;SDS011;54349;52.528;19.760;2024-03-23T02:02:42;3.90;;;3.50;;
67500;SDS011;54349;52.528;19.760;2024-03-23T02:05:12;4.40;;;3.70;;
67500;SDS011;54349;52.528;19.760;2024-03-23T02:07:42;3.70;;;3.40;;
67500;SDS011;54349;52.528;19.760;2024-03-23T02:10:13;3.50;;;3.20;;
67500;SDS011;54349;52.528;19.760;2024-03-23T02:12:42;4.80;;;3.80;;
67500;SDS011;54349;52.528;19.760;2024-03-23T02:15:10;4.60;;;3.50;;
67500;SDS011;54349;52.528;19.760;2024-03-23T02:17:37;4.20;;;3.80;;
67500;SDS011;54349;52.528;19.760;2024-03-23T02:20:07;4.10;;;3.70;;
67500;SDS011;54349;52.528;19.760;2024-03-23T02:22:35;4.20;;;3.80;;
67500;SDS011;54349;52.528;19.760;2024-03-23T02:25:06;4.00;;;3.50;;
67500;SDS011;54349;52.528;19.760;2024-03-23T02:27:34;4.00;;;3.60;;
67500;SDS011;54349;52.528;19.760;2024-03-23T02:30:07;4.20;;;3.80;;
67500;SDS011;54349;52.528;19.760;2024-03-23T02:32:35;3.40;;;3.00;;
67500;SDS011;54349;52.528;19.760;2024-03-23T02:35:05;5.10;;;4.10;;
67500;SDS011;54349;52.528;19.760;2024-03-23T02:37:33;4.90;;;4.00;;
67500;SDS011;54349;52.528;19.760;2024-03-23T02:40:03;4.50;;;3.80;;
67500;SDS011;54349;52.528;19.760;2024-03-23T02:42:31;3.90;;;3.50;;
67500;SDS011;54349;52.528;19.760;2024-03-23T02:45:01;3.80;;;3.40;;
67500;SDS011;54349;52.528;19.760;2024-03-23T02:47:32;3.80;;;3.40;;
67500;SDS011;54349;52.528;19.760;2024-03-23T02:50:01;5.10;;;3.60;;
67500;SDS011;54349;52.528;19.760;2024-03-23T02:52:28;4.10;;;3.60;;
67500;SDS011;54349;52.528;19.760;2024-03-23T02:55:00;3.40;;;3.10;;
67500;SDS011;54349;52.528;19.760;2024-03-23T02:57:29;4.20;;;3.40;;
67500;SDS011;54349;52.528;19.760;2024-03-23T02:59:59;3.90;;;3.50;;
67500;SDS011;54349;52.528;19.760;2024-03-23T03:02:27;4.20;;;3.70;;
67500;SDS011;54349;52.528;19.760;2024-03-23T03:04:55;4.10;;;3.70;;
67500;SDS011;54349;52.528;19.760;2024-03-23T03:07:24;3.90;;;3.50;;
67500;SDS011;54349;52.528;19.760;2024-03-23T03:09:57;4.20;;;3.40;;
67500;SDS011;54349;52.528;19.760;2024-03-23T03:13:15;4.40;;;3.70;;
67500;SDS011;54349;52.528;19.760;2024-03-23T03:15:43;4.30;;;3.90;;
67500;SDS011;54349;52.528;19.760;2024-03-23T03:18:14;3.20;;;2.90;;
67500;SDS011;54349;52.528;19.760;2024-03-23T03:20:42;4.00;;;3.60;;
67500;SDS011;54349;52.528;19.760;2024-03-23T03:23:10;3.80;;;3.40;;
67500;SDS011;54349;52.528;19.760;2024-03-23T03:25:37;3.90;;;3.30;;
67500;SDS011;54349;52.528;19.760;2024-03-23T03:28:05;3.60;;;3.30;;
67500;SDS011;54349;52.528;19.760;2024-03-23T03:30:33;3.90;;;3.10;;
67500;SDS011;54349;52.528;19.760;2024-03-23T03:33:02;3.90;;;3.50;;
67500;SDS011;54349;52.528;19.760;2024-03-23T03:35:30;3.90;;;3.30;;
67500;SDS011;54349;52.528;19.760;2024-03-23T03:38:01;3.30;;;3.00;;
67500;SDS011;54349;52.528;19.760;2024-03-23T03:40:29;4.10;;;3.70;;
67500;SDS011;54349;52.528;19.760;2024-03-23T03:42:59;4.10;;;2.90;;
67500;SDS011;54349;52.528;19.760;2024-03-23T03:45:29;3.50;;;3.20;;
67500;SDS011;54349;52.528;19.760;2024-03-23T03:48:00;3.90;;;3.30;;
67500;SDS011;54349;52.528;19.760;2024-03-23T03:50:28;4.10;;;3.50;;
67500;SDS011;54349;52.528;19.760;2024-03-23T03:52:58;3.80;;;3.40;;
67500;SDS011;54349;52.528;19.760;2024-03-23T03:55:25;3.40;;;3.10;;
67500;SDS011;54349;52.528;19.760;2024-03-23T03:57:56;3.10;;;2.90;;
67500;SDS011;54349;52.528;19.760;2024-03-23T04:00:25;3.70;;;2.90;;
67500;SDS011;54349;52.528;19.760;2024-03-23T04:02:52;3.80;;;3.30;;
67500;SDS011;54349;52.528;19.760;2024-03-23T04:05:20;3.20;;;2.90;;
67500;SDS011;54349;52.528;19.760;2024-03-23T04:07:49;3.90;;;3.50;;
67500;SDS011;54349;52.528;19.760;2024-03-23T04:10:17;3.70;;;3.30;;
67500;SDS011;54349;52.528;19.760;2024-03-23T04:12:47;3.60;;;3.30;;
67500;SDS011;54349;52.528;19.760;2024-03-23T04:15:15;3.70;;;3.40;;
67500;SDS011;54349;52.528;19.760;2024-03-23T04:17:47;3.60;;;3.30;;
67500;SDS011;54349;52.528;19.760;2024-03-23T04:20:14;3.50;;;3.20;;
67500;SDS011;54349;52.528;19.760;2024-03-23T04:22:45;4.40;;;3.50;;
67500;SDS011;54349;52.528;19.760;2024-03-23T04:25:13;3.50;;;3.20;;
67500;SDS011;54349;52.528;19.760;2024-03-23T04:27:41;4.20;;;3.40;;
67500;SDS011;54349;52.528;19.760;2024-03-23T04:30:10;3.40;;;3.10;;
67500;SDS011;54349;52.528;19.760;2024-03-23T04:32:39;4.50;;;3.70;;
67500;SDS011;54349;52.528;19.760;2024-03-23T04:35:09;3.70;;;3.40;;
67500;SDS011;54349;52.528;19.760;2024-03-23T04:37:37;3.70;;;2.90;;
67500;SDS011;54349;52.528;19.760;2024-03-23T04:40:05;3.00;;;2.70;;
67500;SDS011;54349;52.528;19.760;2024-03-23T04:42:36;3.10;;;2.60;;
67500;SDS011;54349;52.528;19.760;2024-03-23T04:48:12;3.30;;;3.00;;
67500;SDS011;54349;52.528;19.760;2024-03-23T04:50:40;3.20;;;2.90;;
67500;SDS011;54349;52.528;19.760;2024-03-23T04:53:10;3.70;;;3.40;;
67500;SDS011;54349;52.528;19.760;2024-03-23T04:55:38;4.00;;;3.60;;
67500;SDS011;54349;52.528;19.760;2024-03-23T04:58:07;3.20;;;2.90;;
67500;SDS011;54349;52.528;19.760;2024-03-23T05:00:35;3.40;;;2.90;;
67500;SDS011;54349;52.528;19.760;2024-03-23T05:03:05;3.00;;;2.70;;
67500;SDS011;54349;52.528;19.760;2024-03-23T05:05:33;2.90;;;2.70;;
67500;SDS011;54349;52.528;19.760;2024-03-23T05:08:01;4.40;;;3.00;;
67500;SDS011;54349;52.528;19.760;2024-03-23T05:10:30;3.00;;;2.80;;
67500;SDS011;54349;52.528;19.760;2024-03-23T05:13:00;3.00;;;2.80;;
67500;SDS011;54349;52.528;19.760;2024-03-23T05:15:29;2.60;;;2.40;;
67500;SDS011;54349;52.528;19.760;2024-03-23T05:17:57;3.60;;;3.20;;
67500;SDS011;54349;52.528;19.760;2024-03-23T05:20:27;3.10;;;2.80;;
67500;SDS011;54349;52.528;19.760;2024-03-23T05:22:55;3.50;;;2.60;;
67500;SDS011;54349;52.528;19.760;2024-03-23T05:25:25;2.80;;;2.50;;
67500;SDS011;54349;52.528;19.760;2024-03-23T05:27:53;3.40;;;3.00;;
67500;SDS011;54349;52.528;19.760;2024-03-23T05:30:20;2.90;;;2.70;;
67500;SDS011;54349;52.528;19.760;2024-03-23T05:32:51;3.40;;;3.10;;
67500;SDS011;54349;52.528;19.760;2024-03-23T05:35:18;3.20;;;2.90;;
67500;SDS011;54349;52.528;19.760;2024-03-23T05:37:48;2.90;;;2.60;;
67500;SDS011;54349;52.528;19.760;2024-03-23T05:40:16;3.70;;;3.40;;
67500;SDS011;54349;52.528;19.760;2024-03-23T05:42:44;3.00;;;2.80;;
67500;SDS011;54349;52.528;19.760;2024-03-23T05:45:13;3.40;;;3.10;;
67500;SDS011;54349;52.528;19.760;2024-03-23T05:47:41;3.20;;;2.90;;
67500;SDS011;54349;52.528;19.760;2024-03-23T05:50:08;2.90;;;2.70;;
67500;SDS011;54349;52.528;19.760;2024-03-23T05:52:39;4.60;;;3.90;;
67500;SDS011;54349;52.528;19.760;2024-03-23T05:55:07;4.00;;;3.60;;
67500;SDS011;54349;52.528;19.760;2024-03-23T05:57:35;3.10;;;2.90;;
67500;SDS011;54349;52.528;19.760;2024-03-23T06:00:04;3.80;;;3.40;;
67500;SDS011;54349;52.528;19.760;2024-03-23T06:02:40;3.90;;;3.50;;
67500;SDS011;54349;52.528;19.760;2024-03-23T06:05:08;4.30;;;3.90;;
67500;SDS011;54349;52.528;19.760;2024-03-23T06:07:36;3.30;;;3.10;;
67500;SDS011;54349;52.528;19.760;2024-03-23T06:10:05;4.50;;;3.70;;
67500;SDS011;54349;52.528;19.760;2024-03-23T06:12:33;5.50;;;3.60;;
67500;SDS011;54349;52.528;19.760;2024-03-23T06:15:02;4.60;;;4.20;;
67500;SDS011;54349;52.528;19.760;2024-03-23T06:17:30;4.10;;;3.70;;
67500;SDS011;54349;52.528;19.760;2024-03-23T06:20:00;4.60;;;4.20;;
67500;SDS011;54349;52.528;19.760;2024-03-23T06:22:28;4.50;;;3.80;;
67500;SDS011;54349;52.528;19.760;2024-03-23T06:24:55;4.30;;;3.60;;
67500;SDS011;54349;52.528;19.760;2024-03-23T06:27:25;4.30;;;3.80;;
67500;SDS011;54349;52.528;19.760;2024-03-23T06:29:52;4.80;;;4.40;;
67500;SDS011;54349;52.528;19.760;2024-03-23T06:32:21;4.30;;;3.90;;
67500;SDS011;54349;52.528;19.760;2024-03-23T06:34:51;4.70;;;4.10;;
67500;SDS011;54349;52.528;19.760;2024-03-23T06:37:19;5.00;;;4.50;;
67500;SDS011;54349;52.528;19.760;2024-03-23T06:39:46;5.20;;;4.70;;
67500;SDS011;54349;52.528;19.760;2024-03-23T06:42:15;6.00;;;4.50;;
67500;SDS011;54349;52.528;19.760;2024-03-23T06:44:43;5.10;;;4.60;;
67500;SDS011;54349;52.528;19.760;2024-03-23T06:47:13;5.10;;;4.60;;
67500;SDS011;54349;52.528;19.760;2024-03-23T06:49:42;4.30;;;3.90;;
67500;SDS011;54349;52.528;19.760;2024-03-23T06:52:12;6.50;;;5.40;;
67500;SDS011;54349;52.528;19.760;2024-03-23T06:54:39;4.90;;;4.50;;
67500;SDS011;54349;52.528;19.760;2024-03-23T06:57:07;4.60;;;4.20;;
67500;SDS011;54349;52.528;19.760;2024-03-23T06:59:36;6.30;;;4.90;;
67500;SDS011;54349;52.528;19.760;2024-03-23T07:02:05;4.90;;;4.50;;
67500;SDS011;54349;52.528;19.760;2024-03-23T07:04:37;5.10;;;4.70;;
67500;SDS011;54349;52.528;19.760;2024-03-23T07:07:06;5.20;;;4.30;;
67500;SDS011;54349;52.528;19.760;2024-03-23T07:09:36;4.80;;;4.40;;
67500;SDS011;54349;52.528;19.760;2024-03-23T07:12:05;4.90;;;4.40;;
67500;SDS011;54349;52.528;19.760;2024-03-23T07:14:34;5.40;;;4.90;;
67500;SDS011;54349;52.528;19.760;2024-03-23T07:17:02;6.10;;;5.50;;
67500;SDS011;54349;52.528;19.760;2024-03-23T07:19:32;5.10;;;4.50;;
67500;SDS011;54349;52.528;19.760;2024-03-23T07:22:00;5.50;;;4.90;;
67500;SDS011;54349;52.528;19.760;2024-03-23T07:24:28;4.60;;;4.20;;
67500;SDS011;54349;52.528;19.760;2024-03-23T07:26:58;5.80;;;5.20;;
67500;SDS011;54349;52.528;19.760;2024-03-23T07:29:26;5.20;;;4.80;;
67500;SDS011;54349;52.528;19.760;2024-03-23T07:31:56;5.10;;;4.60;;
67500;SDS011;54349;52.528;19.760;2024-03-23T07:34:24;4.30;;;4.00;;
67500;SDS011;54349;52.528;19.760;2024-03-23T07:36:52;5.00;;;4.60;;
67500;SDS011;54349;52.528;19.760;2024-03-23T07:39:21;5.30;;;4.80;;
67500;SDS011;54349;52.528;19.760;2024-03-23T07:41:49;5.00;;;4.50;;
67500;SDS011;54349;52.528;19.760;2024-03-23T07:44:16;4.90;;;4.40;;
67500;SDS011;54349;52.528;19.760;2024-03-23T07:46:45;5.60;;;5.10;;
67500;SDS011;54349;52.528;19.760;2024-03-23T07:49:13;4.60;;;4.20;;
67500;SDS011;54349;52.528;19.760;2024-03-23T07:51:41;5.80;;;4.90;;
67500;SDS011;54349;52.528;19.760;2024-03-23T07:54:10;5.60;;;4.80;;
67500;SDS011;54349;52.528;19.760;2024-03-23T07:56:39;5.30;;;4.90;;
67500;SDS011;54349;52.528;19.760;2024-03-23T07:59:08;5.80;;;5.20;;
67500;SDS011;54349;52.528;19.760;2024-03-23T08:01:35;4.90;;;4.40;;
67500;SDS011;54349;52.528;19.760;2024-03-23T08:04:03;5.30;;;4.70;;
67500;SDS011;54349;52.528;19.760;2024-03-23T08:06:32;6.40;;;5.50;;
67500;SDS011;54349;52.528;19.760;2024-03-23T08:09:06;5.70;;;5.10;;
67500;SDS011;54349;52.528;19.760;2024-03-23T08:11:34;6.40;;;5.70;;
67500;SDS011;54349;52.528;19.760;2024-03-23T08:14:02;6.20;;;5.60;;
67500;SDS011;54349;52.528;19.760;2024-03-23T08:16:33;6.00;;;5.40;;
67500;SDS011;54349;52.528;19.760;2024-03-23T08:19:01;6.10;;;5.10;;
67500;SDS011;54349;52.528;19.760;2024-03-23T08:21:32;6.70;;;5.20;;
67500;SDS011;54349;52.528;19.760;2024-03-23T08:24:00;6.20;;;5.40;;
67500;SDS011;54349;52.528;19.760;2024-03-23T08:26:28;6.20;;;5.60;;
67500;SDS011;54349;52.528;19.760;2024-03-23T08:28:57;6.10;;;5.10;;
67500;SDS011;54349;52.528;19.760;2024-03-23T08:31:25;6.30;;;5.70;;
67500;SDS011;54349;52.528;19.760;2024-03-23T08:33:52;6.90;;;5.70;;
67500;SDS011;54349;52.528;19.760;2024-03-23T08:36:21;6.20;;;5.60;;
67500;SDS011;54349;52.528;19.760;2024-03-23T08:38:50;6.40;;;5.60;;
67500;SDS011;54349;52.528;19.760;2024-03-23T08:41:22;5.80;;;5.20;;
67500;SDS011;54349;52.528;19.760;2024-03-23T08:43:50;6.70;;;5.90;;
67500;SDS011;54349;52.528;19.760;2024-03-23T08:46:21;6.90;;;5.00;;
67500;SDS011;54349;52.528;19.760;2024-03-23T08:51:21;7.10;;;5.70;;
67500;SDS011;54349;52.528;19.760;2024-03-23T08:53:49;7.40;;;5.90;;
67500;SDS011;54349;52.528;19.760;2024-03-23T08:56:17;6.50;;;5.50;;
67500;SDS011;54349;52.528;19.760;2024-03-23T08:58:45;5.50;;;5.00;;
67500;SDS011;54349;52.528;19.760;2024-03-23T09:01:13;5.90;;;5.30;;
67500;SDS011;54349;52.528;19.760;2024-03-23T09:03:41;7.90;;;5.40;;
67500;SDS011;54349;52.528;19.760;2024-03-23T09:06:11;5.50;;;5.00;;
67500;SDS011;54349;52.528;19.760;2024-03-23T09:08:40;7.00;;;5.60;;
67500;SDS011;54349;52.528;19.760;2024-03-23T09:11:11;5.90;;;5.30;;
67500;SDS011;54349;52.528;19.760;2024-03-23T09:13:40;6.00;;;4.80;;
67500;SDS011;54349;52.528;19.760;2024-03-23T09:16:10;6.20;;;5.10;;
67500;SDS011;54349;52.528;19.760;2024-03-23T09:18:38;5.60;;;5.00;;
67500;SDS011;54349;52.528;19.760;2024-03-23T09:21:12;6.40;;;5.20;;
67500;SDS011;54349;52.528;19.760;2024-03-23T09:23:43;5.00;;;4.50;;
67500;SDS011;54349;52.528;19.760;2024-03-23T09:26:12;5.80;;;5.00;;
67500;SDS011;54349;52.528;19.760;2024-03-23T09:28:41;6.60;;;5.10;;
67500;SDS011;54349;52.528;19.760;2024-03-23T09:31:10;5.90;;;4.70;;
67500;SDS011;54349;52.528;19.760;2024-03-23T09:33:43;5.30;;;4.50;;
67500;SDS011;54349;52.528;19.760;2024-03-23T09:36:11;5.60;;;5.00;;
67500;SDS011;54349;52.528;19.760;2024-03-23T09:38:41;4.70;;;4.30;;
67500;SDS011;54349;52.528;19.760;2024-03-23T09:41:10;5.40;;;4.80;;
67500;SDS011;54349;52.528;19.760;2024-03-23T09:43:40;5.10;;;4.60;;
67500;SDS011;54349;52.528;19.760;2024-03-23T09:46:07;5.10;;;4.40;;
67500;SDS011;54349;52.528;19.760;2024-03-23T09:48:36;6.40;;;4.50;;
67500;SDS011;54349;52.528;19.760;2024-03-23T09:51:06;6.10;;;4.70;;
67500;SDS011;54349;52.528;19.760;2024-03-23T09:53:36;5.40;;;4.90;;
67500;SDS011;54349;52.528;19.760;2024-03-23T09:56:07;4.70;;;3.90;;
67500;SDS011;54349;52.528;19.760;2024-03-23T09:58:36;4.70;;;4.10;;
67500;SDS011;54349;52.528;19.760;2024-03-23T10:01:05;4.10;;;3.70;;
67500;SDS011;54349;52.528;19.760;2024-03-23T10:03:41;8.40;;;6.20;;
67500;SDS011;54349;52.528;19.760;2024-03-23T10:06:11;5.60;;;4.40;;
67500;SDS011;54349;52.528;19.760;2024-03-23T10:08:39;3.50;;;3.20;;
67500;SDS011;54349;52.528;19.760;2024-03-23T10:11:14;3.90;;;2.40;;
67500;SDS011;54349;52.528;19.760;2024-03-23T10:13:45;4.30;;;3.30;;
67500;SDS011;54349;52.528;19.760;2024-03-23T10:16:22;3.20;;;2.80;;
67500;SDS011;54349;52.528;19.760;2024-03-23T10:18:53;2.60;;;1.90;;
67500;SDS011;54349;52.528;19.760;2024-03-23T10:21:21;3.10;;;2.60;;
67500;SDS011;54349;52.528;19.760;2024-03-23T10:23:49;2.10;;;1.90;;
67500;SDS011;54349;52.528;19.760;2024-03-23T10:26:19;3.40;;;2.60;;
67500;SDS011;54349;52.528;19.760;2024-03-23T10:31:40;6.10;;;3.60;;
67500;SDS011;54349;52.528;19.760;2024-03-23T10:34:09;4.10;;;3.60;;
67500;SDS011;54349;52.528;19.760;2024-03-23T10:36:41;4.30;;;3.70;;
67500;SDS011;54349;52.528;19.760;2024-03-23T10:39:10;4.40;;;3.90;;
67500;SDS011;54349;52.528;19.760;2024-03-23T10:41:41;5.20;;;3.60;;
67500;SDS011;54349;52.528;19.760;2024-03-23T10:44:10;5.80;;;3.40;;
67500;SDS011;54349;52.528;19.760;2024-03-23T10:46:39;5.70;;;4.30;;
67500;SDS011;54349;52.528;19.760;2024-03-23T10:49:07;3.50;;;3.10;;
67500;SDS011;54349;52.528;19.760;2024-03-23T10:51:35;4.30;;;3.50;;
67500;SDS011;54349;52.528;19.760;2024-03-23T10:54:04;3.20;;;2.90;;
67500;SDS011;54349;52.528;19.760;2024-03-23T10:56:34;3.70;;;3.40;;
67500;SDS011;54349;52.528;19.760;2024-03-23T10:59:05;6.40;;;4.40;;
67500;SDS011;54349;52.528;19.760;2024-03-23T11:01:34;4.40;;;3.40;;
67500;SDS011;54349;52.528;19.760;2024-03-23T11:04:03;3.50;;;3.20;;
67500;SDS011;54349;52.528;19.760;2024-03-23T11:06:37;3.60;;;3.20;;
67500;SDS011;54349;52.528;19.760;2024-03-23T11:12:28;3.70;;;2.60;;
67500;SDS011;54349;52.528;19.760;2024-03-23T11:17:29;5.30;;;4.50;;
67500;SDS011;54349;52.528;19.760;2024-03-23T11:25:18;5.10;;;3.90;;
67500;SDS011;54349;52.528;19.760;2024-03-23T11:27:57;5.00;;;4.50;;
67500;SDS011;54349;52.528;19.760;2024-03-23T11:30:37;5.50;;;4.30;;
67500;SDS011;54349;52.528;19.760;2024-03-23T11:33:06;6.30;;;5.70;;
67500;SDS011;54349;52.528;19.760;2024-03-23T11:35:37;4.50;;;4.10;;
67500;SDS011;54349;52.528;19.760;2024-03-23T11:40:42;8.20;;;5.50;;
67500;SDS011;54349;52.528;19.760;2024-03-23T11:43:15;7.10;;;5.40;;
67500;SDS011;54349;52.528;19.760;2024-03-23T11:48:21;5.30;;;4.80;;
67500;SDS011;54349;52.528;19.760;2024-03-23T11:50:53;5.80;;;5.20;;
67500;SDS011;54349;52.528;19.760;2024-03-23T11:53:26;5.90;;;5.20;;
67500;SDS011;54349;52.528;19.760;2024-03-23T11:55:58;5.90;;;4.90;;
67500;SDS011;54349;52.528;19.760;2024-03-23T11:58:27;5.90;;;4.90;;
67500;SDS011;54349;52.528;19.760;2024-03-23T12:00:56;7.50;;;6.30;;
67500;SDS011;54349;52.528;19.760;2024-03-23T12:03:27;7.00;;;6.00;;
67500;SDS011;54349;52.528;19.760;2024-03-23T12:06:03;7.90;;;7.10;;
67500;SDS011;54349;52.528;19.760;2024-03-23T12:08:33;8.90;;;6.40;;
67500;SDS011;54349;52.528;19.760;2024-03-23T12:13:35;7.10;;;6.40;;
67500;SDS011;54349;52.528;19.760;2024-03-23T12:16:14;7.50;;;6.60;;
67500;SDS011;54349;52.528;19.760;2024-03-23T12:18:46;4.80;;;4.20;;
67500;SDS011;54349;52.528;19.760;2024-03-23T12:21:15;5.20;;;4.70;;
67500;SDS011;54349;52.528;19.760;2024-03-23T12:23:46;5.50;;;4.50;;
67500;SDS011;54349;52.528;19.760;2024-03-23T12:26:16;5.90;;;5.20;;
67500;SDS011;54349;52.528;19.760;2024-03-23T12:28:46;4.90;;;4.30;;
67500;SDS011;54349;52.528;19.760;2024-03-23T12:31:14;5.00;;;4.50;;
67500;SDS011;54349;52.528;19.760;2024-03-23T12:33:42;5.80;;;4.10;;
67500;SDS011;54349;52.528;19.760;2024-03-23T12:36:11;5.10;;;4.30;;
67500;SDS011;54349;52.528;19.760;2024-03-23T12:38:42;5.30;;;4.00;;
67500;SDS011;54349;52.528;19.760;2024-03-23T12:41:13;6.60;;;5.70;;
67500;SDS011;54349;52.528;19.760;2024-03-23T12:43:41;5.60;;;4.50;;
67500;SDS011;54349;52.528;19.760;2024-03-23T12:46:09;4.80;;;4.10;;
67500;SDS011;54349;52.528;19.760;2024-03-23T12:48:39;5.80;;;5.20;;
67500;SDS011;54349;52.528;19.760;2024-03-23T12:51:07;6.00;;;5.40;;
67500;SDS011;54349;52.528;19.760;2024-03-23T12:53:37;6.50;;;4.90;;
67500;SDS011;54349;52.528;19.760;2024-03-23T12:56:05;4.00;;;3.60;;
67500;SDS011;54349;52.528;19.760;2024-03-23T12:58:33;4.30;;;3.80;;
67500;SDS011;54349;52.528;19.760;2024-03-23T13:01:02;4.20;;;3.80;;
67500;SDS011;54349;52.528;19.760;2024-03-23T13:03:30;5.40;;;3.60;;
67500;SDS011;54349;52.528;19.760;2024-03-23T13:05:57;5.40;;;4.30;;
67500;SDS011;54349;52.528;19.760;2024-03-23T13:08:25;4.00;;;3.60;;
67500;SDS011;54349;52.528;19.760;2024-03-23T13:10:53;4.90;;;4.40;;
67500;SDS011;54349;52.528;19.760;2024-03-23T13:13:25;5.20;;;4.50;;
67500;SDS011;54349;52.528;19.760;2024-03-23T13:15:52;5.10;;;4.10;;
67500;SDS011;54349;52.528;19.760;2024-03-23T13:18:20;5.90;;;5.10;;
67500;SDS011;54349;52.528;19.760;2024-03-23T13:20:49;5.40;;;4.70;;
67500;SDS011;54349;52.528;19.760;2024-03-23T13:23:17;6.60;;;5.40;;
67500;SDS011;54349;52.528;19.760;2024-03-23T13:25:54;5.80;;;5.10;;
67500;SDS011;54349;52.528;19.760;2024-03-23T13:28:25;5.50;;;4.90;;
67500;SDS011;54349;52.528;19.760;2024-03-23T13:30:53;5.00;;;4.30;;
67500;SDS011;54349;52.528;19.760;2024-03-23T13:33:26;6.60;;;4.50;;
67500;SDS011;54349;52.528;19.760;2024-03-23T13:35:54;5.00;;;4.50;;
67500;SDS011;54349;52.528;19.760;2024-03-23T13:38:25;4.40;;;4.00;;
67500;SDS011;54349;52.528;19.760;2024-03-23T13:43:27;6.10;;;5.00;;
67500;SDS011;54349;52.528;19.760;2024-03-23T13:45:56;5.90;;;5.30;;
67500;SDS011;54349;52.528;19.760;2024-03-23T13:48:27;6.00;;;5.50;;
67500;SDS011;54349;52.528;19.760;2024-03-23T13:50:57;5.70;;;5.10;;
67500;SDS011;54349;52.528;19.760;2024-03-23T13:53:27;7.20;;;5.70;;
67500;SDS011;54349;52.528;19.760;2024-03-23T13:55:55;4.80;;;4.30;;
67500;SDS011;54349;52.528;19.760;2024-03-23T13:58:24;5.90;;;4.70;;
67500;SDS011;54349;52.528;19.760;2024-03-23T14:00:53;6.40;;;5.30;;
67500;SDS011;54349;52.528;19.760;2024-03-23T14:03:24;5.20;;;4.60;;
67500;SDS011;54349;52.528;19.760;2024-03-23T14:05:52;7.20;;;5.00;;
67500;SDS011;54349;52.528;19.760;2024-03-23T14:08:22;5.70;;;5.10;;
67500;SDS011;54349;52.528;19.760;2024-03-23T14:10:50;5.10;;;4.40;;
67500;SDS011;54349;52.528;19.760;2024-03-23T14:13:21;4.50;;;3.80;;
67500;SDS011;54349;52.528;19.760;2024-03-23T14:15:52;4.20;;;3.80;;
67500;SDS011;54349;52.528;19.760;2024-03-23T14:18:22;6.80;;;3.80;;
67500;SDS011;54349;52.528;19.760;2024-03-23T14:20:50;5.20;;;4.20;;
67500;SDS011;54349;52.528;19.760;2024-03-23T14:23:18;4.70;;;3.90;;
67500;SDS011;54349;52.528;19.760;2024-03-23T14:25:47;5.30;;;4.30;;
67500;SDS011;54349;52.528;19.760;2024-03-23T14:28:15;4.90;;;4.20;;
67500;SDS011;54349;52.528;19.760;2024-03-23T14:30:43;5.70;;;5.20;;
67500;SDS011;54349;52.528;19.760;2024-03-23T14:33:13;6.00;;;5.40;;
67500;SDS011;54349;52.528;19.760;2024-03-23T14:35:41;6.20;;;4.90;;
67500;SDS011;54349;52.528;19.760;2024-03-23T14:38:09;6.10;;;5.00;;
67500;SDS011;54349;52.528;19.760;2024-03-23T14:40:38;5.10;;;4.60;;
67500;SDS011;54349;52.528;19.760;2024-03-23T14:43:06;5.30;;;4.80;;
67500;SDS011;54349;52.528;19.760;2024-03-23T14:45:36;5.80;;;4.70;;
67500;SDS011;54349;52.528;19.760;2024-03-23T14:48:04;5.30;;;4.80;;
67500;SDS011;54349;52.528;19.760;2024-03-23T14:50:36;8.80;;;4.70;;
67500;SDS011;54349;52.528;19.760;2024-03-23T14:53:04;4.80;;;4.40;;
67500;SDS011;54349;52.528;19.760;2024-03-23T14:55:34;5.00;;;4.50;;
67500;SDS011;54349;52.528;19.760;2024-03-23T14:58:02;4.70;;;4.20;;
67500;SDS011;54349;52.528;19.760;2024-03-23T15:00:31;5.60;;;5.10;;
67500;SDS011;54349;52.528;19.760;2024-03-23T15:02:59;5.30;;;4.50;;
67500;SDS011;54349;52.528;19.760;2024-03-23T15:05:27;4.20;;;3.90;;
67500;SDS011;54349;52.528;19.760;2024-03-23T15:07:56;6.80;;;6.00;;
67500;SDS011;54349;52.528;19.760;2024-03-23T15:10:25;6.20;;;5.00;;
67500;SDS011;54349;52.528;19.760;2024-03-23T15:12:54;6.70;;;5.70;;
67500;SDS011;54349;52.528;19.760;2024-03-23T15:15:22;8.10;;;7.30;;
67500;SDS011;54349;52.528;19.760;2024-03-23T15:17:50;6.90;;;5.90;;
67500;SDS011;54349;52.528;19.760;2024-03-23T15:20:19;6.40;;;5.80;;
67500;SDS011;54349;52.528;19.760;2024-03-23T15:22:47;5.70;;;5.10;;
67500;SDS011;54349;52.528;19.760;2024-03-23T15:25:15;5.80;;;5.20;;
67500;SDS011;54349;52.528;19.760;2024-03-23T15:27:44;8.10;;;5.60;;
67500;SDS011;54349;52.528;19.760;2024-03-23T15:30:15;6.40;;;5.20;;
67500;SDS011;54349;52.528;19.760;2024-03-23T15:32:44;6.60;;;5.40;;
67500;SDS011;54349;52.528;19.760;2024-03-23T15:35:11;7.90;;;6.90;;
67500;SDS011;54349;52.528;19.760;2024-03-23T15:37:39;6.40;;;5.60;;
67500;SDS011;54349;52.528;19.760;2024-03-23T15:40:09;5.70;;;5.10;;
67500;SDS011;54349;52.528;19.760;2024-03-23T15:42:37;5.80;;;5.10;;
67500;SDS011;54349;52.528;19.760;2024-03-23T15:45:07;6.60;;;5.20;;
67500;SDS011;54349;52.528;19.760;2024-03-23T15:47:37;5.60;;;5.10;;
67500;SDS011;54349;52.528;19.760;2024-03-23T15:50:06;6.30;;;5.60;;
67500;SDS011;54349;52.528;19.760;2024-03-23T15:52:36;7.30;;;6.60;;
67500;SDS011;54349;52.528;19.760;2024-03-23T15:55:06;7.70;;;6.60;;
67500;SDS011;54349;52.528;19.760;2024-03-23T15:57:34;7.50;;;6.80;;
67500;SDS011;54349;52.528;19.760;2024-03-23T16:00:05;7.30;;;6.50;;
67500;SDS011;54349;52.528;19.760;2024-03-23T16:02:40;6.70;;;5.50;;
67500;SDS011;54349;52.528;19.760;2024-03-23T16:05:09;7.80;;;6.90;;
67500;SDS011;54349;52.528;19.760;2024-03-23T16:07:40;7.20;;;6.50;;
67500;SDS011;54349;52.528;19.760;2024-03-23T16:10:08;6.70;;;6.00;;